createdAt,value
2018-12-21T00:01:45.780Z,54.20
2018-12-21T00:04:14.638Z,53.70
2018-12-21T00:06:43.284Z,52.10
2018-12-21T00:09:12.009Z,53.27
2018-12-21T00:11:40.773Z,51.13
2018-12-21T00:14:09.478Z,54.30
2018-12-21T00:16:38.216Z,54.53
2018-12-21T00:19:06.860Z,53.97
2018-12-21T00:21:35.615Z,53.37
2018-12-21T00:24:04.441Z,54.63
2018-12-21T00:26:33.197Z,56.20
2018-12-21T00:29:01.896Z,54.50
2018-12-21T00:31:35.851Z,54.63
2018-12-21T00:34:09.678Z,52.23
2018-12-21T00:36:43.697Z,54.60
2018-12-21T00:39:17.690Z,55.03
2018-12-21T00:41:45.613Z,53.43
2018-12-21T00:44:19.606Z,56.43
2018-12-21T00:46:51.957Z,52.93
2018-12-21T00:49:21.225Z,56.07
2018-12-21T00:51:50.070Z,58.67
2018-12-21T00:54:18.841Z,60.33
2018-12-21T00:56:47.607Z,61.03
2018-12-21T00:59:16.325Z,62.70
2018-12-21T01:01:46.136Z,60.00
2018-12-21T01:04:14.843Z,57.43
2018-12-21T01:06:43.612Z,57.53
2018-12-21T01:09:12.398Z,57.70
2018-12-21T01:11:41.356Z,58.67
2018-12-21T01:14:10.263Z,58.40
2018-12-21T01:16:39.184Z,55.70
2018-12-21T01:19:07.964Z,57.20
2018-12-21T01:21:38.901Z,58.13
2018-12-21T01:24:07.354Z,56.13
2018-12-21T01:26:36.160Z,57.70
2018-12-21T01:29:04.867Z,56.43
2018-12-21T01:31:33.735Z,51.53
2018-12-21T01:34:02.371Z,54.43
2018-12-21T01:36:31.113Z,53.03
2018-12-21T01:38:59.918Z,53.60
2018-12-21T01:41:28.619Z,48.80
2018-12-21T01:43:57.345Z,47.13
2018-12-21T01:46:26.031Z,49.67
2018-12-21T01:48:54.744Z,52.90
2018-12-21T01:51:23.674Z,50.93
2018-12-21T01:53:52.453Z,50.57
2018-12-21T01:56:21.208Z,54.03
2018-12-21T01:58:49.920Z,54.43
2018-12-21T02:01:18.676Z,51.37
2018-12-21T02:03:47.370Z,52.10
2018-12-21T02:06:16.252Z,53.77
2018-12-21T02:08:44.999Z,51.30
2018-12-21T02:11:13.739Z,51.77
2018-12-21T02:13:48.857Z,52.57
2018-12-21T02:16:17.560Z,50.40
2018-12-21T02:18:46.317Z,51.03
2018-12-21T02:21:15.020Z,50.87
2018-12-21T02:23:43.683Z,52.63
2018-12-21T02:26:12.596Z,51.43
2018-12-21T02:28:41.482Z,51.03
2018-12-21T02:31:10.138Z,53.77
2018-12-21T02:33:38.907Z,50.27
2018-12-21T02:36:07.744Z,49.70
2018-12-21T02:38:36.514Z,52.87
2018-12-21T02:41:05.201Z,48.53
2018-12-21T02:43:33.981Z,54.63
2018-12-21T02:46:02.671Z,48.97
2018-12-21T02:48:31.377Z,48.03
2018-12-21T02:51:00.191Z,49.17
2018-12-21T02:53:28.887Z,49.67
2018-12-21T02:55:57.875Z,46.53
2018-12-21T02:58:26.663Z,48.97
2018-12-21T03:00:55.370Z,49.57
2018-12-21T03:03:24.100Z,54.77
2018-12-21T03:05:52.834Z,51.00
2018-12-21T03:08:21.704Z,50.40
2018-12-21T03:10:50.574Z,51.60
2018-12-21T03:13:19.276Z,51.00
2018-12-21T03:15:47.957Z,51.33
2018-12-21T03:18:16.820Z,50.97
2018-12-21T03:20:45.632Z,50.93
2018-12-21T03:23:14.344Z,52.77
2018-12-21T03:25:43.103Z,53.67
2018-12-21T03:28:11.961Z,55.70
2018-12-21T03:30:40.710Z,60.60
2018-12-21T03:33:09.490Z,57.13
2018-12-21T03:35:38.210Z,53.00
2018-12-21T03:38:07.108Z,54.40
2018-12-21T03:40:35.917Z,55.70
2018-12-21T03:43:04.582Z,53.43
2018-12-21T03:45:33.389Z,52.37
2018-12-21T03:48:02.086Z,51.63
2018-12-21T03:50:30.800Z,62.47
2018-12-21T03:52:59.537Z,51.53
2018-12-21T03:55:28.325Z,54.43
2018-12-21T03:57:57.077Z,51.93
2018-12-21T04:00:25.839Z,51.80
2018-12-21T04:02:54.558Z,52.17
2018-12-21T04:05:23.218Z,56.53
2018-12-21T04:07:51.961Z,57.17
2018-12-21T04:10:20.630Z,55.50
2018-12-21T04:12:49.389Z,52.83
2018-12-21T04:15:18.133Z,52.50
2018-12-21T04:17:46.883Z,52.73
2018-12-21T04:20:15.670Z,57.63
2018-12-21T04:22:44.488Z,55.63
2018-12-21T04:25:13.142Z,53.33
2018-12-21T04:27:41.898Z,54.10
2018-12-21T04:30:11.144Z,54.27
2018-12-21T04:32:39.850Z,51.83
2018-12-21T04:35:08.653Z,53.70
2018-12-21T04:37:37.404Z,54.30
2018-12-21T04:40:06.704Z,53.33
2018-12-21T04:42:35.405Z,53.07
2018-12-21T04:45:04.388Z,52.97
2018-12-21T04:47:33.229Z,52.37
2018-12-21T04:50:01.975Z,55.00
2018-12-21T04:52:30.618Z,51.70
2018-12-21T04:54:59.412Z,53.17
2018-12-21T04:57:28.113Z,52.27
2018-12-21T04:59:57.029Z,54.70
2018-12-21T05:02:25.795Z,52.40
2018-12-21T05:04:54.617Z,48.33
2018-12-21T05:07:23.307Z,48.87
2018-12-21T05:09:52.125Z,48.87
2018-12-21T05:12:20.809Z,48.87
2018-12-21T05:14:49.606Z,46.53
2018-12-21T05:17:18.343Z,48.13
2018-12-21T05:19:47.149Z,47.17
2018-12-21T05:22:15.813Z,48.80
2018-12-21T05:24:44.555Z,45.53
2018-12-21T05:27:13.263Z,43.40
2018-12-21T05:29:41.977Z,46.73
2018-12-21T05:32:10.716Z,44.70
2018-12-21T05:34:39.374Z,45.33
2018-12-21T05:37:08.126Z,47.27
2018-12-21T05:39:36.889Z,43.97
2018-12-21T05:42:05.716Z,41.90
2018-12-21T05:44:34.458Z,42.50
2018-12-21T05:47:03.232Z,44.43
2018-12-21T05:49:32.029Z,43.57
2018-12-21T05:52:00.839Z,44.20
2018-12-21T05:54:29.598Z,43.90
2018-12-21T05:56:58.379Z,45.57
2018-12-21T05:59:27.187Z,46.37
2018-12-21T06:01:55.911Z,49.07
2018-12-21T06:04:24.695Z,51.93
2018-12-21T06:06:53.336Z,51.47
2018-12-21T06:09:22.077Z,52.37
2018-12-21T06:11:50.707Z,69.83
2018-12-21T06:14:19.603Z,69.00
2018-12-21T06:16:48.300Z,66.93
2018-12-21T06:19:17.119Z,66.60
2018-12-21T06:21:45.873Z,63.57
2018-12-21T06:24:14.616Z,63.97
2018-12-21T06:26:43.311Z,75.47
2018-12-21T06:29:12.076Z,67.17
2018-12-21T06:31:40.775Z,73.77
2018-12-21T06:34:09.413Z,68.23
2018-12-21T06:36:38.214Z,64.53
2018-12-21T06:39:08.339Z,60.57
2018-12-21T06:41:37.051Z,71.57
2018-12-21T06:44:05.796Z,70.57
2018-12-21T06:46:34.568Z,74.73
2018-12-21T06:49:03.353Z,68.23
2018-12-21T06:51:32.091Z,60.17
2018-12-21T06:54:00.848Z,62.90
2018-12-21T06:56:29.549Z,75.03
2018-12-21T06:58:58.302Z,69.03
2018-12-21T07:01:27.025Z,79.53
2018-12-21T07:03:56.478Z,79.53
2018-12-21T07:06:25.186Z,80.03
2018-12-21T07:08:53.950Z,91.53
2018-12-21T07:11:22.601Z,71.37
2018-12-21T07:13:51.470Z,56.57
2018-12-21T07:16:20.281Z,73.27
2018-12-21T07:18:49.078Z,75.13
2018-12-21T07:21:17.848Z,70.43
2018-12-21T07:23:46.722Z,71.43
2018-12-21T07:26:15.615Z,75.47
2018-12-21T07:28:44.366Z,65.10
2018-12-21T07:31:13.025Z,119.10
2018-12-21T07:33:41.754Z,70.60
2018-12-21T07:36:10.721Z,63.73
2018-12-21T07:38:39.482Z,57.93
2018-12-21T07:41:08.209Z,77.23
2018-12-21T07:43:36.906Z,65.57
2018-12-21T07:46:05.699Z,84.03
2018-12-21T07:48:34.349Z,88.13
2018-12-21T07:51:03.100Z,64.57
2018-12-21T07:53:35.955Z,66.63
2018-12-21T07:56:02.720Z,61.93
2018-12-21T07:58:31.583Z,61.40
2018-12-21T08:01:00.330Z,55.87
2018-12-21T08:03:29.124Z,60.20
2018-12-21T08:05:57.812Z,65.53
2018-12-21T08:08:26.557Z,63.17
2018-12-21T08:10:55.275Z,58.57
2018-12-21T08:13:24.027Z,62.23
2018-12-21T08:15:52.795Z,64.27
2018-12-21T08:18:21.556Z,77.47
2018-12-21T08:20:50.381Z,82.87
2018-12-21T08:23:19.094Z,85.63
2018-12-21T08:25:47.780Z,94.93
2018-12-21T08:28:16.482Z,68.83
2018-12-21T08:30:45.243Z,64.97
2018-12-21T08:33:13.974Z,78.43
2018-12-21T08:35:42.843Z,85.87
2018-12-21T08:38:12.586Z,98.80
2018-12-21T08:40:41.318Z,72.27
2018-12-21T08:43:10.060Z,90.07
2018-12-21T08:45:38.821Z,77.43
2018-12-21T08:48:07.644Z,73.87
2018-12-21T08:50:36.282Z,69.60
2018-12-21T08:53:05.138Z,69.43
2018-12-21T08:55:33.961Z,75.87
2018-12-21T08:58:02.750Z,70.00
2018-12-21T09:00:31.396Z,65.60
2018-12-21T09:03:00.223Z,67.17
2018-12-21T09:05:29.013Z,73.73
2018-12-21T09:07:57.865Z,67.90
2018-12-21T09:10:26.732Z,66.50
2018-12-21T09:12:55.515Z,63.30
2018-12-21T09:15:24.231Z,57.53
2018-12-21T09:17:53.149Z,62.07
2018-12-21T09:20:21.879Z,56.87
2018-12-21T09:22:50.674Z,63.03
2018-12-21T09:25:19.409Z,71.33
2018-12-21T09:27:48.199Z,76.63
2018-12-21T09:30:17.004Z,63.20
2018-12-21T09:32:45.688Z,77.03
2018-12-21T09:35:14.407Z,84.57
2018-12-21T09:37:43.165Z,78.10
2018-12-21T09:40:13.216Z,69.27
2018-12-21T09:42:41.999Z,59.07
2018-12-21T09:45:10.834Z,69.30
2018-12-21T09:47:39.563Z,60.83
2018-12-21T09:50:10.322Z,63.43
2018-12-21T09:52:38.997Z,64.17
2018-12-21T09:55:08.593Z,65.60
2018-12-21T09:57:37.539Z,66.17
2018-12-21T10:00:09.541Z,65.87
2018-12-21T10:02:38.230Z,77.13
2018-12-21T10:05:09.019Z,79.27
2018-12-21T10:07:37.820Z,67.53
2018-12-21T10:10:07.034Z,64.93
2018-12-21T10:12:35.750Z,61.83
2018-12-21T10:15:05.140Z,73.93
2018-12-21T10:17:33.901Z,70.37
2018-12-21T10:20:02.690Z,66.23
2018-12-21T10:22:37.868Z,57.57
2018-12-21T10:25:07.148Z,56.80
2018-12-21T10:27:35.793Z,59.00
2018-12-21T10:30:05.542Z,56.30
2018-12-21T10:32:34.319Z,63.10
2018-12-21T10:35:03.037Z,64.23
2018-12-21T10:37:31.755Z,63.20
2018-12-21T10:40:00.516Z,67.17
2018-12-21T10:42:29.272Z,62.87
2018-12-21T10:44:57.963Z,64.97
2018-12-21T10:47:26.699Z,61.10
2018-12-21T10:49:55.631Z,58.40
2018-12-21T10:52:24.373Z,60.50
2018-12-21T10:57:28.228Z,71.33
2018-12-21T10:59:56.979Z,64.93
2018-12-21T11:02:25.676Z,63.23
2018-12-21T11:04:54.387Z,60.40
2018-12-21T11:07:23.092Z,55.73
2018-12-21T11:09:51.930Z,59.53
2018-12-21T11:12:20.774Z,58.13
2018-12-21T11:14:49.421Z,58.07
2018-12-21T11:17:18.319Z,63.00
2018-12-21T11:22:19.306Z,62.30
2018-12-21T11:24:48.085Z,59.40
2018-12-21T11:27:16.786Z,59.00
2018-12-21T11:29:45.494Z,60.77
2018-12-21T11:32:14.253Z,56.93
2018-12-21T11:34:42.960Z,56.73
2018-12-21T11:37:11.789Z,60.90
2018-12-21T11:39:40.636Z,63.57
2018-12-21T11:42:09.396Z,68.57
2018-12-21T11:44:38.158Z,68.60
2018-12-21T11:47:06.940Z,60.67
2018-12-21T11:49:35.683Z,63.60
2018-12-21T11:52:04.327Z,63.23
2018-12-21T11:54:33.185Z,61.10
2018-12-21T11:57:01.861Z,62.20
2018-12-21T11:59:30.535Z,60.03
2018-12-21T12:01:59.308Z,65.07
2018-12-21T12:04:28.004Z,70.07
2018-12-21T12:06:56.760Z,74.70
2018-12-21T12:09:25.516Z,60.40
2018-12-21T12:11:54.167Z,56.53
2018-12-21T12:14:22.922Z,63.43
2018-12-21T12:16:51.693Z,59.27
2018-12-21T12:19:20.471Z,54.47
2018-12-21T12:21:49.225Z,57.70
2018-12-21T12:24:17.964Z,57.07
2018-12-21T12:26:46.684Z,57.23
2018-12-21T12:29:15.412Z,70.00
2018-12-21T12:31:44.145Z,69.43
2018-12-21T12:34:12.883Z,71.17
2018-12-21T12:36:41.642Z,71.23
2018-12-21T12:39:10.455Z,82.90
2018-12-21T12:41:39.196Z,70.80
2018-12-21T12:44:07.974Z,72.60
2018-12-21T12:46:39.636Z,72.10
2018-12-21T12:49:08.471Z,70.33
2018-12-21T12:51:37.192Z,65.33
2018-12-21T12:54:05.931Z,67.63
2018-12-21T12:56:34.708Z,66.13
2018-12-21T12:59:03.458Z,66.03
2018-12-21T13:01:32.230Z,72.20
2018-12-21T13:04:00.978Z,64.67
2018-12-21T13:06:29.696Z,64.77
2018-12-21T13:08:58.332Z,67.03
2018-12-21T13:11:27.123Z,87.17
2018-12-21T13:13:57.043Z,82.30
2018-12-21T13:16:25.825Z,70.63
2018-12-21T13:18:54.555Z,63.67
2018-12-21T13:21:23.270Z,62.40
2018-12-21T13:23:52.148Z,68.63
2018-12-21T13:26:20.966Z,62.60
2018-12-21T13:28:49.892Z,63.30
2018-12-21T13:31:18.590Z,70.90
2018-12-21T13:33:47.353Z,69.73
2018-12-21T13:36:16.143Z,74.40
2018-12-21T13:38:44.856Z,71.97
2018-12-21T13:41:13.622Z,68.80
2018-12-21T13:43:42.320Z,80.80
2018-12-21T13:46:11.023Z,75.20
2018-12-21T13:48:39.800Z,67.37
2018-12-21T13:51:08.521Z,65.77
2018-12-21T13:53:37.234Z,72.03
2018-12-21T13:56:05.954Z,78.93
2018-12-21T13:58:34.741Z,71.00
2018-12-21T14:01:03.593Z,71.40
2018-12-21T14:03:32.415Z,71.37
2018-12-21T14:06:01.104Z,81.83
2018-12-21T14:08:29.849Z,81.23
2018-12-21T14:10:58.540Z,78.90
2018-12-21T14:13:27.277Z,69.90
2018-12-21T14:15:55.904Z,72.93
2018-12-21T14:18:24.725Z,173.47
2018-12-21T14:20:53.488Z,77.93
2018-12-21T14:23:22.224Z,63.73
2018-12-21T14:25:50.880Z,60.67
2018-12-21T14:28:19.607Z,62.97
2018-12-21T14:30:48.361Z,64.17
2018-12-21T14:33:17.120Z,61.83
2018-12-21T14:35:45.878Z,67.33
2018-12-21T14:38:14.731Z,75.13
2018-12-21T14:40:43.387Z,76.20
2018-12-21T14:43:12.139Z,73.30
2018-12-21T14:45:40.952Z,71.03
2018-12-21T14:48:09.735Z,73.00
2018-12-21T14:50:38.461Z,73.67
2018-12-21T14:53:07.175Z,71.50
2018-12-21T14:55:37.604Z,76.53
2018-12-21T14:58:06.731Z,70.57
2018-12-21T15:00:35.530Z,65.80
2018-12-21T15:03:04.250Z,67.43
2018-12-21T15:05:32.951Z,64.67
2018-12-21T15:08:01.824Z,98.00
2018-12-21T15:10:30.519Z,84.30
2018-12-21T15:12:59.227Z,95.67
2018-12-21T15:15:27.955Z,77.97
2018-12-21T15:17:56.654Z,71.57
2018-12-21T15:20:25.486Z,76.30
2018-12-21T15:22:54.156Z,82.70
2018-12-21T15:25:22.902Z,106.27
2018-12-21T15:27:51.639Z,87.27
2018-12-21T15:30:20.348Z,75.70
2018-12-21T15:35:24.013Z,67.43
2018-12-21T15:37:52.713Z,63.73
2018-12-21T15:40:21.482Z,69.53
2018-12-21T15:42:50.224Z,80.57
2018-12-21T15:45:19.115Z,86.20
2018-12-21T15:47:47.954Z,69.73
2018-12-21T15:50:16.706Z,65.83
2018-12-21T15:52:45.515Z,78.33
2018-12-21T15:55:14.163Z,84.83
2018-12-21T15:57:42.907Z,78.63
2018-12-21T16:00:13.964Z,112.83
2018-12-21T16:02:44.828Z,109.60
2018-12-21T16:05:13.574Z,90.30
2018-12-21T16:07:42.387Z,78.40
2018-12-21T16:10:12.668Z,81.70
2018-12-21T16:12:41.484Z,88.50
2018-12-21T16:15:11.058Z,79.60
2018-12-21T16:17:39.852Z,81.67
2018-12-21T16:20:11.737Z,77.47
2018-12-21T16:22:42.552Z,77.37
2018-12-21T16:25:11.197Z,78.17
2018-12-21T16:27:40.116Z,78.73
2018-12-21T16:30:11.601Z,94.97
2018-12-21T16:32:40.453Z,83.03
2018-12-21T16:35:09.242Z,86.23
2018-12-21T16:37:38.089Z,78.87
2018-12-21T16:40:08.912Z,86.10
2018-12-21T16:42:37.688Z,84.00
2018-12-21T16:45:08.355Z,83.87
2018-12-21T16:47:37.129Z,85.93
2018-12-21T16:50:09.120Z,90.60
2018-12-21T16:52:37.979Z,85.97
2018-12-21T16:55:06.982Z,86.07
2018-12-21T16:57:35.828Z,89.53
2018-12-21T17:00:07.151Z,81.13
2018-12-21T17:02:35.816Z,70.87
2018-12-21T17:05:05.192Z,78.60
2018-12-21T17:07:33.996Z,85.50
2018-12-21T17:10:02.713Z,85.37
2018-12-21T17:12:31.467Z,74.73
2018-12-21T17:15:00.283Z,81.47
2018-12-21T17:17:29.001Z,81.63
2018-12-21T17:19:58.826Z,77.40
2018-12-21T17:22:27.636Z,77.37
2018-12-21T17:24:56.523Z,80.00
2018-12-21T17:27:25.253Z,85.17
2018-12-21T17:29:54.007Z,84.53
2018-12-21T17:32:22.853Z,86.97
2018-12-21T17:34:51.565Z,88.03
2018-12-21T17:37:20.362Z,83.90
2018-12-21T17:39:49.088Z,85.93
2018-12-21T17:42:17.855Z,85.10
2018-12-21T17:44:46.597Z,92.50
2018-12-21T17:47:15.389Z,93.63
2018-12-21T17:49:44.190Z,85.20
2018-12-21T17:52:12.900Z,103.47
2018-12-21T17:54:41.787Z,124.43
2018-12-21T17:57:10.555Z,109.83
2018-12-21T17:59:39.491Z,75.83
2018-12-21T18:02:08.249Z,99.60
2018-12-21T18:04:36.950Z,130.40
2018-12-21T18:07:05.716Z,72.87
2018-12-21T18:09:36.132Z,73.70
2018-12-21T18:12:05.111Z,70.23
2018-12-21T18:14:33.891Z,68.43
2018-12-21T18:17:04.253Z,64.37
2018-12-21T18:19:32.924Z,60.20
2018-12-21T18:22:12.310Z,57.03
2018-12-21T18:24:41.287Z,57.87
2018-12-21T18:27:10.133Z,58.30
2018-12-21T18:29:40.861Z,59.30
2018-12-21T18:32:26.871Z,53.73
2018-12-21T18:34:57.738Z,54.97
2018-12-21T18:37:26.395Z,58.20
2018-12-21T18:39:55.198Z,64.97
2018-12-21T18:42:23.916Z,72.77
2018-12-21T18:44:52.680Z,69.77
2018-12-21T18:47:21.339Z,59.73
2018-12-21T18:49:50.096Z,64.13
2018-12-21T18:52:18.796Z,69.90
2018-12-21T18:54:47.564Z,63.90
2018-12-21T18:57:18.523Z,61.63
2018-12-21T18:59:47.311Z,81.53
2018-12-21T19:02:15.977Z,77.50
2018-12-21T19:04:44.781Z,73.30
2018-12-21T19:07:13.570Z,69.13
2018-12-21T19:09:42.333Z,75.50
2018-12-21T19:12:11.452Z,90.47
2018-12-21T19:14:40.285Z,125.83
2018-12-21T19:17:09.770Z,103.07
2018-12-21T19:19:38.590Z,69.67
2018-12-21T19:22:07.522Z,81.63
2018-12-21T19:24:36.317Z,75.23
2018-12-21T19:27:05.200Z,69.73
2018-12-21T19:29:33.990Z,74.17
2018-12-21T19:32:02.840Z,70.80
2018-12-21T19:34:31.621Z,78.17
2018-12-21T19:37:00.534Z,62.30
2018-12-21T19:39:29.290Z,61.53
2018-12-21T19:41:58.079Z,60.07
2018-12-21T19:44:27.292Z,61.83
2018-12-21T19:46:56.090Z,62.93
2018-12-21T19:49:24.863Z,66.80
2018-12-21T19:51:53.627Z,65.30
2018-12-21T19:54:23.515Z,62.33
2018-12-21T19:57:12.050Z,66.03
2018-12-21T19:59:40.753Z,66.53
2018-12-21T20:02:09.917Z,67.83
2018-12-21T20:04:40.460Z,68.80
2018-12-21T20:07:09.118Z,67.23
2018-12-21T20:09:37.857Z,57.73
2018-12-21T20:12:07.323Z,79.27
2018-12-21T20:14:36.108Z,72.53
2018-12-21T20:17:04.826Z,70.80
2018-12-21T20:19:33.752Z,62.50
2018-12-21T20:22:02.537Z,58.87
2018-12-21T20:24:33.925Z,57.47
2018-12-21T20:27:15.214Z,61.40
2018-12-21T20:29:44.565Z,56.93
2018-12-21T20:32:13.350Z,60.10
2018-12-21T20:34:42.174Z,61.57
2018-12-21T20:37:10.898Z,79.70
2018-12-21T20:39:42.884Z,81.20
2018-12-21T20:42:12.676Z,80.33
2018-12-21T20:44:41.415Z,73.70
2018-12-21T20:47:10.635Z,61.30
2018-12-21T20:49:39.323Z,65.10
2018-12-21T20:52:07.999Z,66.57
2018-12-21T20:54:36.711Z,63.03
2018-12-21T20:57:07.663Z,61.57
2018-12-21T20:59:36.591Z,61.07
2018-12-21T21:02:05.384Z,70.40
2018-12-21T21:04:34.030Z,75.67
2018-12-21T21:07:02.900Z,53.43
2018-12-21T21:09:31.530Z,52.80
2018-12-21T21:12:00.255Z,54.90
2018-12-21T21:14:29.020Z,51.90
2018-12-21T21:16:57.781Z,52.20
2018-12-21T21:19:28.769Z,55.43
2018-12-21T21:21:57.488Z,60.47
2018-12-21T21:24:26.869Z,59.13
2018-12-21T21:26:55.879Z,58.07
2018-12-21T21:29:24.840Z,57.90
2018-12-21T21:31:53.541Z,55.60
2018-12-21T21:34:22.352Z,56.50
2018-12-21T21:36:51.125Z,53.73
2018-12-21T21:39:19.818Z,62.17
2018-12-21T21:41:48.564Z,60.97
2018-12-21T21:44:18.504Z,55.77
2018-12-21T21:46:48.507Z,67.00
2018-12-21T21:49:19.447Z,54.93
2018-12-21T21:51:48.424Z,56.47
2018-12-21T21:54:17.181Z,50.93
2018-12-21T21:56:45.925Z,53.57
2018-12-21T21:59:14.714Z,52.17
2018-12-21T22:01:43.409Z,51.60
2018-12-21T22:04:12.100Z,49.67
2018-12-21T22:06:40.872Z,51.50
2018-12-21T22:09:09.500Z,49.33
2018-12-21T22:11:38.212Z,56.37
2018-12-21T22:14:07.037Z,86.83
2018-12-21T22:16:35.703Z,52.60
2018-12-21T22:19:04.549Z,53.07
2018-12-21T22:21:33.195Z,54.67
2018-12-21T22:24:01.893Z,63.13
2018-12-21T22:26:30.656Z,56.03
2018-12-21T22:28:59.369Z,53.63
2018-12-21T22:31:28.080Z,58.67
2018-12-21T22:33:56.827Z,67.10
2018-12-21T22:39:00.649Z,41.43
2018-12-21T22:41:29.336Z,49.00
2018-12-21T22:43:58.022Z,51.60
2018-12-21T22:46:26.704Z,43.90
2018-12-21T22:48:55.504Z,46.60
2018-12-21T22:51:24.229Z,45.47
2018-12-21T22:53:52.994Z,47.07
2018-12-21T22:56:21.707Z,48.10
2018-12-21T22:58:50.456Z,42.50
2018-12-21T23:01:19.382Z,43.97
2018-12-21T23:03:48.016Z,42.10
2018-12-21T23:06:16.767Z,41.03
2018-12-21T23:08:45.454Z,41.47
2018-12-21T23:11:14.330Z,45.53
2018-12-21T23:13:43.141Z,43.07
2018-12-21T23:16:11.900Z,41.60
2018-12-21T23:18:40.636Z,49.60
2018-12-21T23:21:09.318Z,40.93
2018-12-21T23:23:38.065Z,44.67
2018-12-21T23:26:06.708Z,42.77
2018-12-21T23:28:35.412Z,40.33
2018-12-21T23:31:04.260Z,41.93
2018-12-21T23:33:33.049Z,41.20
2018-12-21T23:36:01.670Z,42.70
2018-12-21T23:38:30.376Z,43.30
2018-12-21T23:40:59.061Z,45.27
2018-12-21T23:43:27.734Z,42.77
2018-12-21T23:45:56.438Z,44.47
2018-12-21T23:48:25.342Z,41.23
2018-12-21T23:50:54.021Z,42.10
2018-12-21T23:53:22.816Z,40.87
2018-12-21T23:55:51.687Z,44.23
2018-12-21T23:58:20.433Z,43.53
